Time;durP1;ratioP1;P1;durP2;ratioP2;P2;SDS_P1;SDS_P2;PMS_P1;PMS_P2;Temp;Humidity;BMP_temperature;BMP_pressure;BME280_temperature;BME280_humidity;BME280_pressure;Samples;Min_cycle;Max_cycle;Signal;HPM_P1;HPM_P2
2022/10/03 00:01:04;;;;;;;;;;;23.30;52.60;;;;;;1597550;73;1925;-58
2022/10/03 00:03:11;;;;;;;;;;;23.30;52.60;;;;;;1594884;73;2019;-58
2022/10/03 00:05:29;;;;;;;;;;;23.30;52.70;;;;;;1595326;73;1147;-58
2022/10/03 00:07:39;;;;;;;;;;;23.30;52.80;;;;;;1600547;73;1916;-60
2022/10/03 00:09:43;;;;;;;;;;;23.20;52.80;;;;;;1592132;73;620;-60
2022/10/03 00:11:49;;;;;;;;;;;23.20;52.90;;;;;;1600753;73;1936;-59
2022/10/03 00:13:59;;;;;;;;;;;23.10;53.10;;;;;;1596858;73;703;-58
2022/10/03 00:16:14;;;;;;;;;;;23.10;53.10;;;;;;1595336;72;223974;-64
2022/10/03 00:18:18;;;;;;;;;;;23.10;53.20;;;;;;1570362;74;683;-67
2022/10/03 00:20:33;;;;;;;;;;;23.10;53.20;;;;;;1574285;74;1201;-67
2022/10/03 00:22:40;;;;;;;;;;;23.10;53.20;;;;;;1573224;73;728;-66
2022/10/03 00:24:49;;;;;;;;;;;23.20;53.30;;;;;;1566552;74;686;-67
2022/10/03 00:27:09;;;;;;;;;;;23.10;53.30;;;;;;1554489;74;1946;-66
2022/10/03 00:29:19;;;;;;;;;;;23.10;53.30;;;;;;1543866;76;719;-67
2022/10/03 00:31:22;;;;;;;;;;;23.10;53.10;;;;;;1540994;76;734;-67
2022/10/03 00:33:26;;;;;;;;;;;23.20;53.00;;;;;;1550551;74;767;-65
2022/10/03 00:35:48;;;;;;;;;;;23.30;53.10;;;;;;1547753;74;1808;-65
2022/10/03 00:38:10;;;;;;;;;;;23.20;52.80;;;;;;1542504;75;1785;-66
2022/10/03 00:40:30;;;;;;;;;;;23.30;52.80;;;;;;1543063;76;1088;-67
2022/10/03 00:42:36;;;;;;;;;;;23.30;52.70;;;;;;1543078;74;759;-68
2022/10/03 00:44:42;;;;;;;;;;;23.30;52.50;;;;;;1544033;74;1142;-68
2022/10/03 00:46:55;;;;;;;;;;;23.40;52.30;;;;;;1538553;76;1959;-67
2022/10/03 00:49:02;;;;;;;;;;;23.40;52.10;;;;;;1547246;76;743;-69
2022/10/03 00:51:14;;;;;;;;;;;23.50;52.00;;;;;;1547689;74;795;-67
2022/10/03 00:53:18;;;;;;;;;;;23.50;52.00;;;;;;1547909;74;1984;-67
2022/10/03 00:55:39;;;;;;;;;;;23.50;51.90;;;;;;1545603;74;1678;-67
2022/10/03 00:57:58;;;;;;;;;;;23.60;51.80;;;;;;1543238;74;1917;-67
2022/10/03 01:00:20;;;;;;;;;;;23.60;51.60;;;;;;1544371;75;719;-66
2022/10/03 01:02:24;;;;;;;;;;;23.60;51.70;;;;;;1550606;76;822;-69
2022/10/03 01:04:37;;;;;;;;;;;23.60;51.60;;;;;;1538205;76;1118;-67
2022/10/03 01:06:46;;;;;;;;;;;23.60;51.60;;;;;;1546495;76;1951;-67
2022/10/03 01:09:06;;;;;;;;;;;23.60;51.80;;;;;;1547631;75;793;-66
2022/10/03 01:11:12;;;;;;;;;;;23.60;51.80;;;;;;1541488;76;788;-67
2022/10/03 01:13:22;;;;;;;;;;;23.60;51.60;;;;;;1543947;76;739;-67
2022/10/03 01:15:25;;;;;;;;;;;23.60;51.60;;;;;;1540254;74;1898;-68
2022/10/03 01:17:35;;;;;;;;;;;23.70;51.70;;;;;;1551327;75;1919;-69
2022/10/03 01:19:45;;;;;;;;;;;23.60;51.50;;;;;;1539441;76;1716;-67
2022/10/03 01:21:52;;;;;;;;;;;23.60;51.60;;;;;;1548105;76;1106;-66
2022/10/03 01:24:12;;;;;;;;;;;23.50;51.80;;;;;;1539506;74;1949;-66
2022/10/03 01:26:31;;;;;;;;;;;23.50;51.90;;;;;;1555214;74;1937;-67
2022/10/03 01:31:01;;;;;;;;;;;23.50;52.10;;;;;;1554891;74;1655;-67
2022/10/03 01:33:06;;;;;;;;;;;23.30;52.20;;;;;;1555787;74;916;-67
2022/10/03 01:35:19;;;;;;;;;;;23.30;52.50;;;;;;1549998;74;1013;-67
2022/10/03 01:37:28;;;;;;;;;;;23.30;52.80;;;;;;1547417;74;1136;-65
2022/10/03 01:39:33;;;;;;;;;;;23.20;52.90;;;;;;1559365;76;1745;-67
2022/10/03 01:41:36;;;;;;;;;;;23.20;53.00;;;;;;1548875;76;1074;-66
2022/10/03 01:43:41;;;;;;;;;;;23.20;53.10;;;;;;1553126;74;1904;-66
2022/10/03 01:45:47;;;;;;;;;;;23.10;53.10;;;;;;1556369;76;723;-67
2022/10/03 01:47:50;;;;;;;;;;;23.20;53.10;;;;;;1558415;74;1950;-66
2022/10/03 01:50:03;;;;;;;;;;;23.20;52.90;;;;;;1559687;76;795;-65
2022/10/03 01:52:11;;;;;;;;;;;23.20;52.70;;;;;;1558077;74;733;-67
2022/10/03 01:54:16;;;;;;;;;;;23.20;52.40;;;;;;1548881;74;829;-67
2022/10/03 01:56:19;;;;;;;;;;;23.30;52.20;;;;;;1549581;74;1162;-67
2022/10/03 01:58:30;;;;;;;;;;;23.50;52.10;;;;;;1548653;74;1861;-69
2022/10/03 02:00:45;;;;;;;;;;;23.50;52.00;;;;;;1561834;74;932;-66
2022/10/03 02:02:55;;;;;;;;;;;23.50;52.00;;;;;;1548298;76;720;-64
2022/10/03 02:04:58;;;;;;;;;;;23.50;52.10;;;;;;1546484;74;783;-65
2022/10/03 02:07:05;;;;;;;;;;;23.50;52.10;;;;;;1547976;75;1946;-66
2022/10/03 02:09:08;;;;;;;;;;;23.50;52.20;;;;;;1550190;74;815;-67
2022/10/03 02:11:10;;;;;;;;;;;23.40;52.20;;;;;;1545298;74;749;-68
2022/10/03 02:13:13;;;;;;;;;;;23.30;52.30;;;;;;1553977;76;1567;-67
2022/10/03 02:15:17;;;;;;;;;;;23.30;52.40;;;;;;1547261;74;797;-66
2022/10/03 02:17:37;;;;;;;;;;;23.30;52.30;;;;;;1548833;74;1148;-67
2022/10/03 02:19:47;;;;;;;;;;;23.40;52.10;;;;;;1554152;74;851;-68
2022/10/03 02:21:50;;;;;;;;;;;23.50;52.10;;;;;;1561098;74;1807;-65
2022/10/03 02:23:54;;;;;;;;;;;23.50;52.10;;;;;;1537351;76;1821;-65
2022/10/03 02:26:16;;;;;;;;;;;23.50;52.10;;;;;;1536552;76;1679;-66
2022/10/03 02:28:29;;;;;;;;;;;23.40;52.00;;;;;;1547624;76;1967;-66
2022/10/03 02:30:47;;;;;;;;;;;23.30;52.30;;;;;;1531639;76;1715;-66
2022/10/03 02:33:06;;;;;;;;;;;23.30;52.50;;;;;;1559996;74;656;-68
2022/10/03 02:35:09;;;;;;;;;;;23.20;52.80;;;;;;1540297;76;967;-65
2022/10/03 02:37:16;;;;;;;;;;;23.10;53.10;;;;;;1548330;74;1089;-66
2022/10/03 02:39:19;;;;;;;;;;;23.10;53.40;;;;;;1556128;74;746;-66
2022/10/03 02:41:39;;;;;;;;;;;23.00;53.30;;;;;;1556182;76;687;-67
2022/10/03 02:43:59;;;;;;;;;;;22.90;53.50;;;;;;1553382;74;720;-68
2022/10/03 02:46:06;;;;;;;;;;;23.00;53.70;;;;;;1554062;74;1120;-69
2022/10/03 02:48:09;;;;;;;;;;;22.90;53.90;;;;;;1553710;76;1942;-67
2022/10/03 02:50:18;;;;;;;;;;;23.00;53.90;;;;;;1553333;74;700;-67
2022/10/03 02:52:24;;;;;;;;;;;22.90;54.00;;;;;;1553088;76;951;-66
2022/10/03 02:54:44;;;;;;;;;;;22.90;54.10;;;;;;1537639;74;2179;-67
2022/10/03 02:56:48;;;;;;;;;;;22.90;54.20;;;;;;1550899;74;1199;-66
2022/10/03 02:58:52;;;;;;;;;;;23.00;54.20;;;;;;1549457;74;2095;-67
2022/10/03 03:01:05;;;;;;;;;;;23.00;54.40;;;;;;1548659;76;1979;-69
2022/10/03 03:03:14;;;;;;;;;;;23.00;54.40;;;;;;1546969;75;1926;-67
2022/10/03 03:05:36;;;;;;;;;;;23.00;54.50;;;;;;1542424;74;702;-67
2022/10/03 03:07:52;;;;;;;;;;;23.00;54.40;;;;;;1536647;76;1937;-68
2022/10/03 03:10:11;;;;;;;;;;;23.00;54.40;;;;;;1529665;76;1697;-66
2022/10/03 03:12:18;;;;;;;;;;;23.00;54.30;;;;;;1514227;76;879;-67
2022/10/03 03:14:40;;;;;;;;;;;23.00;54.30;;;;;;1569447;74;1975;-67
2022/10/03 03:16:43;;;;;;;;;;;23.00;54.40;;;;;;1552101;74;1126;-69
2022/10/03 03:19:03;;;;;;;;;;;23.00;54.30;;;;;;1539362;76;822;-68
2022/10/03 03:21:19;;;;;;;;;;;23.00;54.30;;;;;;1548855;74;777;-68
2022/10/03 03:23:38;;;;;;;;;;;23.10;54.40;;;;;;1553175;75;791;-67
2022/10/03 03:25:50;;;;;;;;;;;23.10;54.60;;;;;;1553719;76;758;-66
2022/10/03 03:27:59;;;;;;;;;;;23.10;54.60;;;;;;1549325;74;1904;-66
2022/10/03 03:30:02;;;;;;;;;;;23.10;54.40;;;;;;1557087;76;1725;-67
2022/10/03 03:32:23;;;;;;;;;;;23.10;54.40;;;;;;1552999;74;750;-66
2022/10/03 03:34:43;;;;;;;;;;;23.10;54.40;;;;;;1549805;74;908;-68
2022/10/03 03:36:53;;;;;;;;;;;23.10;54.30;;;;;;1557891;75;1091;-67
2022/10/03 03:38:59;;;;;;;;;;;23.10;54.20;;;;;;1544194;74;791;-67
2022/10/03 03:41:12;;;;;;;;;;;23.10;54.20;;;;;;1558078;76;2070;-68
2022/10/03 03:43:24;;;;;;;;;;;23.10;54.20;;;;;;1557090;74;2180;-68
2022/10/03 03:45:43;;;;;;;;;;;23.10;54.20;;;;;;1557436;76;1232;-67
2022/10/03 03:47:56;;;;;;;;;;;23.10;54.20;;;;;;1556607;74;1947;-67
2022/10/03 03:50:12;;;;;;;;;;;23.10;54.10;;;;;;1550973;74;1851;-66
2022/10/03 03:52:16;;;;;;;;;;;23.10;54.10;;;;;;1552028;74;1892;-66
2022/10/03 03:54:25;;;;;;;;;;;23.10;54.20;;;;;;1548306;74;722;-66
2022/10/03 03:56:37;;;;;;;;;;;23.10;54.10;;;;;;1549057;74;1833;-66
2022/10/03 03:58:56;;;;;;;;;;;23.20;54.10;;;;;;1558552;74;1937;-66
2022/10/03 04:01:14;;;;;;;;;;;23.10;54.20;;;;;;1545855;76;2101;-66
2022/10/03 04:03:36;;;;;;;;;;;23.10;54.10;;;;;;1551921;76;711;-66
2022/10/03 04:05:40;;;;;;;;;;;23.10;54.00;;;;;;1556779;74;1819;-68
2022/10/03 04:07:49;;;;;;;;;;;23.10;54.00;;;;;;1560849;75;1958;-66
2022/10/03 04:09:55;;;;;;;;;;;23.10;54.00;;;;;;1545084;76;2033;-64
2022/10/03 04:12:09;;;;;;;;;;;23.10;54.00;;;;;;1548544;74;729;-66
2022/10/03 04:14:12;;;;;;;;;;;23.10;54.00;;;;;;1553421;74;750;-66
2022/10/03 04:18:56;;;;;;;;;;;23.10;54.00;;;;;;1556732;74;1560;-66
2022/10/03 04:21:00;;;;;;;;;;;23.10;54.10;;;;;;1551831;76;1671;-66
2022/10/03 04:23:04;;;;;;;;;;;23.10;54.20;;;;;;1557061;74;804;-67
2022/10/03 04:25:07;;;;;;;;;;;23.10;54.20;;;;;;1551137;76;1893;-67
2022/10/03 04:27:23;;;;;;;;;;;23.10;54.10;;;;;;1545377;74;1956;-67
2022/10/03 04:29:28;;;;;;;;;;;23.10;54.00;;;;;;1555174;76;2083;-68
2022/10/03 04:31:39;;;;;;;;;;;23.10;53.90;;;;;;1548437;74;1113;-67
2022/10/03 04:33:48;;;;;;;;;;;23.10;53.90;;;;;;1539992;74;1697;-67
2022/10/03 04:36:07;;;;;;;;;;;23.10;53.90;;;;;;1555686;76;1654;-68
2022/10/03 04:38:22;;;;;;;;;;;23.10;53.90;;;;;;1555567;76;708;-67
2022/10/03 04:40:32;;;;;;;;;;;23.10;53.90;;;;;;1548410;76;710;-67
2022/10/03 04:42:45;;;;;;;;;;;23.00;53.70;;;;;;1554322;76;640;-69
2022/10/03 04:44:48;;;;;;;;;;;23.00;53.70;;;;;;1557804;74;786;-67
2022/10/03 04:47:01;;;;;;;;;;;23.10;53.90;;;;;;1559601;74;1889;-66
2022/10/03 04:49:05;;;;;;;;;;;23.10;53.90;;;;;;1556209;76;760;-66
2022/10/03 04:51:09;;;;;;;;;;;23.10;53.90;;;;;;1549531;76;850;-67
2022/10/03 04:53:15;;;;;;;;;;;23.10;53.90;;;;;;1556326;74;830;-67
2022/10/03 04:55:24;;;;;;;;;;;23.10;53.90;;;;;;1561848;76;2185;-67
2022/10/03 04:57:44;;;;;;;;;;;23.00;53.70;;;;;;1558597;74;1158;-66
2022/10/03 05:00:00;;;;;;;;;;;23.00;53.80;;;;;;1561749;74;826;-67
2022/10/03 05:02:04;;;;;;;;;;;23.20;53.80;;;;;;1554563;74;1953;-66
2022/10/03 05:04:09;;;;;;;;;;;23.10;53.80;;;;;;1524592;74;978;-65
2022/10/03 05:06:24;;;;;;;;;;;23.10;53.90;;;;;;1552324;74;1205;-64
2022/10/03 05:08:28;;;;;;;;;;;23.10;53.80;;;;;;1524111;74;1936;-65
2022/10/03 05:10:31;;;;;;;;;;;23.10;53.90;;;;;;1542510;76;1393;-64
2022/10/03 05:12:38;;;;;;;;;;;23.10;53.90;;;;;;1555857;76;1950;-65
2022/10/03 05:14:42;;;;;;;;;;;23.10;53.90;;;;;;1553375;76;713;-64
2022/10/03 05:16:45;;;;;;;;;;;23.10;53.90;;;;;;1545060;75;1163;-65
2022/10/03 05:18:49;;;;;;;;;;;23.10;53.80;;;;;;1538548;76;789;-65
2022/10/03 05:20:58;;;;;;;;;;;23.10;53.90;;;;;;1550641;74;1041;-63
2022/10/03 05:23:05;;;;;;;;;;;23.10;54.00;;;;;;1560443;74;750;-65
2022/10/03 05:25:15;;;;;;;;;;;23.10;54.00;;;;;;1561433;76;1162;-64
2022/10/03 05:27:21;;;;;;;;;;;23.00;53.90;;;;;;1551857;74;1954;-66
2022/10/03 05:29:24;;;;;;;;;;;23.10;54.10;;;;;;1562511;74;1903;-65
2022/10/03 05:31:32;;;;;;;;;;;23.10;54.00;;;;;;1553779;74;725;-66
2022/10/03 05:33:44;;;;;;;;;;;23.10;54.20;;;;;;1557131;75;1702;-63
2022/10/03 05:36:06;;;;;;;;;;;23.10;54.10;;;;;;1549710;74;715;-66
2022/10/03 05:38:21;;;;;;;;;;;23.10;54.10;;;;;;1548481;76;758;-65
2022/10/03 05:40:24;;;;;;;;;;;23.10;54.10;;;;;;1553723;76;760;-65
2022/10/03 05:42:33;;;;;;;;;;;23.10;54.10;;;;;;1560342;74;735;-64
2022/10/03 05:44:40;;;;;;;;;;;23.10;54.10;;;;;;1557251;74;639;-66
2022/10/03 05:46:58;;;;;;;;;;;23.10;54.10;;;;;;1553572;75;1092;-65
2022/10/03 05:49:17;;;;;;;;;;;23.10;54.00;;;;;;1555246;74;1928;-67
2022/10/03 05:51:27;;;;;;;;;;;23.10;54.00;;;;;;1550730;74;789;-66
2022/10/03 05:53:46;;;;;;;;;;;23.10;54.10;;;;;;1553215;74;1491;-65
2022/10/03 05:55:58;;;;;;;;;;;23.10;54.20;;;;;;1559813;76;794;-67
2022/10/03 05:58:11;;;;;;;;;;;23.20;54.40;;;;;;1562507;75;1575;-66
2022/10/03 06:00:15;;;;;;;;;;;23.10;54.40;;;;;;1559246;74;1188;-66
2022/10/03 06:02:35;;;;;;;;;;;23.10;54.30;;;;;;1559052;76;909;-68
2022/10/03 06:04:44;;;;;;;;;;;23.20;54.20;;;;;;1556453;76;797;-67
2022/10/03 06:07:04;;;;;;;;;;;23.10;54.10;;;;;;1555969;76;1213;-66
2022/10/03 06:09:08;;;;;;;;;;;23.20;54.10;;;;;;1559621;76;1907;-66
2022/10/03 06:11:28;;;;;;;;;;;23.10;54.10;;;;;;1556232;76;1655;-65
2022/10/03 06:13:31;;;;;;;;;;;23.20;54.10;;;;;;1556047;74;657;-66
2022/10/03 06:15:51;;;;;;;;;;;23.10;54.00;;;;;;1556330;76;752;-67
2022/10/03 06:18:01;;;;;;;;;;;23.10;54.00;;;;;;1616899;70;2051;-62
2022/10/03 06:20:22;;;;;;;;;;;23.10;54.00;;;;;;1636841;71;709;-64
2022/10/03 06:22:28;;;;;;;;;;;23.10;54.10;;;;;;1630760;71;784;-61
2022/10/03 06:24:41;;;;;;;;;;;23.20;54.20;;;;;;1621106;71;1796;-66
2022/10/03 06:27:01;;;;;;;;;;;23.10;54.20;;;;;;1623787;71;1222;-65
2022/10/03 06:29:21;;;;;;;;;;;23.20;54.20;;;;;;1605894;72;1901;-64
2022/10/03 06:31:39;;;;;;;;;;;23.20;54.40;;;;;;1613243;72;782;-66
2022/10/03 06:34:01;;;;;;;;;;;23.20;54.50;;;;;;1617930;72;1858;-64
2022/10/03 06:36:20;;;;;;;;;;;23.20;54.30;;;;;;1605573;73;931;-65
2022/10/03 06:38:23;;;;;;;;;;;23.20;54.20;;;;;;1604782;72;1991;-64
2022/10/03 06:40:32;;;;;;;;;;;23.20;54.10;;;;;;1608783;73;1923;-64
2022/10/03 06:42:39;;;;;;;;;;;23.20;54.00;;;;;;1609478;72;732;-64
2022/10/03 06:44:49;;;;;;;;;;;23.20;53.80;;;;;;1609929;72;772;-65
2022/10/03 06:47:09;;;;;;;;;;;23.20;53.80;;;;;;1587260;73;1114;-64
2022/10/03 06:49:24;;;;;;;;;;;23.10;53.70;;;;;;1595779;72;1928;-64
2022/10/03 06:51:31;;;;;;;;;;;23.20;53.60;;;;;;1593520;73;745;-65
2022/10/03 06:53:34;;;;;;;;;;;23.10;53.60;;;;;;1590327;72;792;-65
2022/10/03 06:55:54;;;;;;;;;;;23.10;53.50;;;;;;1597566;72;1777;-64
2022/10/03 06:57:58;;;;;;;;;;;23.20;53.50;;;;;;1596596;72;1122;-64
2022/10/03 07:00:18;;;;;;;;;;;23.10;53.50;;;;;;1583311;73;2023;-64
2022/10/03 07:02:22;;;;;;;;;;;23.20;53.40;;;;;;1590672;72;774;-64
2022/10/03 07:04:34;;;;;;;;;;;23.10;53.40;;;;;;1591528;73;1504;-65
2022/10/03 07:06:54;;;;;;;;;;;23.10;53.40;;;;;;1573656;74;1169;-64
2022/10/03 07:09:03;;;;;;;;;;;23.10;53.30;;;;;;1588207;72;1938;-65
2022/10/03 07:11:10;;;;;;;;;;;23.10;53.30;;;;;;1592613;72;1879;-63
2022/10/03 07:13:17;;;;;;;;;;;23.10;53.30;;;;;;1584026;73;713;-64
2022/10/03 07:15:23;;;;;;;;;;;23.10;53.20;;;;;;1587696;73;2344;-63
2022/10/03 07:17:27;;;;;;;;;;;23.10;53.20;;;;;;1598539;73;1142;-64
2022/10/03 07:19:42;;;;;;;;;;;23.10;53.30;;;;;;1598135;73;2041;-65
2022/10/03 07:22:02;;;;;;;;;;;23.10;53.20;;;;;;1611813;73;758;-63
2022/10/03 07:24:22;;;;;;;;;;;23.10;53.30;;;;;;1603076;72;798;-63
2022/10/03 07:26:32;;;;;;;;;;;23.10;53.30;;;;;;1612015;73;1173;-61
2022/10/03 07:28:44;;;;;;;;;;;23.10;53.20;;;;;;1609289;72;1981;-63
2022/10/03 07:30:48;;;;;;;;;;;23.10;53.30;;;;;;1519006;77;1104;-63
2022/10/03 07:32:51;;;;;;;;;;;23.10;53.20;;;;;;1594645;72;888;-64
2022/10/03 07:34:55;;;;;;;;;;;23.10;53.20;;;;;;1595412;73;729;-63
2022/10/03 07:39:41;;;;;;;;;;;23.10;53.30;;;;;;1610504;72;1860;-63
2022/10/03 07:41:53;;;;;;;;;;;23.10;53.30;;;;;;1494705;78;1085;-63
2022/10/03 07:44:13;;;;;;;;;;;23.10;53.30;;;;;;1494398;78;1990;-63
2022/10/03 07:46:34;;;;;;;;;;;23.10;53.30;;;;;;1496466;73;1221;-63
2022/10/03 07:48:40;;;;;;;;;;;23.10;53.40;;;;;;1609674;72;1893;-63
2022/10/03 07:50:51;;;;;;;;;;;23.00;53.20;;;;;;1605812;72;1573;-63
2022/10/03 07:52:57;;;;;;;;;;;23.00;53.30;;;;;;1600845;72;803;-63
2022/10/03 07:55:01;;;;;;;;;;;23.10;53.40;;;;;;1605162;73;1918;-64
2022/10/03 07:57:08;;;;;;;;;;;23.10;53.40;;;;;;1606068;73;1145;-64
2022/10/03 07:59:12;;;;;;;;;;;23.10;53.40;;;;;;1611231;72;2169;-63
2022/10/03 08:01:32;;;;;;;;;;;23.10;53.40;;;;;;1612231;72;1055;-63
2022/10/03 08:03:48;;;;;;;;;;;23.10;53.40;;;;;;1604774;72;800;-63
2022/10/03 08:06:04;;;;;;;;;;;23.10;53.40;;;;;;1611625;73;2138;-63
2022/10/03 08:08:13;;;;;;;;;;;23.10;53.40;;;;;;1604182;72;1913;-64
2022/10/03 08:10:20;;;;;;;;;;;23.10;53.40;;;;;;1617190;72;1920;-62
2022/10/03 08:12:23;;;;;;;;;;;23.10;53.40;;;;;;1604811;72;615;-64
2022/10/03 08:14:29;;;;;;;;;;;23.10;53.30;;;;;;1605102;72;759;-63
2022/10/03 08:16:39;;;;;;;;;;;23.10;53.30;;;;;;1601679;72;2126;-64
2022/10/03 08:18:43;;;;;;;;;;;23.00;53.20;;;;;;1602321;73;792;-63
2022/10/03 08:20:46;;;;;;;;;;;23.10;53.30;;;;;;1601069;73;1867;-64
2022/10/03 08:22:51;;;;;;;;;;;23.00;53.20;;;;;;1602588;72;759;-62
2022/10/03 08:25:00;;;;;;;;;;;23.00;53.10;;;;;;1611880;72;1938;-64
2022/10/03 08:27:03;;;;;;;;;;;23.10;53.30;;;;;;1592269;73;1168;-65
2022/10/03 08:29:07;;;;;;;;;;;23.10;53.30;;;;;;1601310;73;1923;-62
2022/10/03 08:31:14;;;;;;;;;;;23.00;53.20;;;;;;1602040;72;765;-64
2022/10/03 08:33:29;;;;;;;;;;;23.10;53.30;;;;;;1602736;72;1858;-64
2022/10/03 08:35:37;;;;;;;;;;;23.10;53.20;;;;;;1561711;73;1149;-64
2022/10/03 08:37:41;;;;;;;;;;;23.10;53.20;;;;;;1604873;72;1121;-65
2022/10/03 08:39:47;;;;;;;;;;;23.10;53.20;;;;;;1607533;72;1915;-64
2022/10/03 08:42:07;;;;;;;;;;;23.10;53.10;;;;;;1604729;72;766;-64
2022/10/03 08:44:17;;;;;;;;;;;23.10;53.10;;;;;;1610331;72;813;-64
2022/10/03 08:46:38;;;;;;;;;;;23.10;53.10;;;;;;1604593;73;1575;-63
2022/10/03 08:48:48;;;;;;;;;;;23.10;53.00;;;;;;1606430;73;1930;-64
2022/10/03 08:50:52;;;;;;;;;;;23.10;53.00;;;;;;1613690;73;2048;-65
2022/10/03 08:53:11;;;;;;;;;;;23.00;52.90;;;;;;1615174;72;799;-63
2022/10/03 08:55:23;;;;;;;;;;;23.00;53.40;;;;;;1604289;72;802;-64
2022/10/03 08:57:43;;;;;;;;;;;23.10;53.80;;;;;;1619911;73;1143;-63
2022/10/03 08:59:56;;;;;;;;;;;23.10;54.40;;;;;;1609516;72;798;-64
2022/10/03 09:02:05;;;;;;;;;;;23.10;55.00;;;;;;1605180;72;933;-65
2022/10/03 09:04:18;;;;;;;;;;;23.10;55.20;;;;;;1608159;73;1851;-65
2022/10/03 09:06:39;;;;;;;;;;;23.10;55.30;;;;;;1608402;72;1914;-63
2022/10/03 09:08:46;;;;;;;;;;;23.10;55.50;;;;;;1603159;72;1913;-66
2022/10/03 09:11:06;;;;;;;;;;;23.10;56.00;;;;;;1614404;72;758;-66
2022/10/03 09:13:13;;;;;;;;;;;23.20;56.10;;;;;;1603595;72;783;-67
2022/10/03 09:15:23;;;;;;;;;;;23.20;55.90;;;;;;1607487;72;1127;-63
2022/10/03 09:17:32;;;;;;;;;;;23.20;55.70;;;;;;1606694;72;1577;-66
2022/10/03 09:19:52;;;;;;;;;;;23.20;55.80;;;;;;1609473;73;1826;-67
2022/10/03 09:22:02;;;;;;;;;;;23.20;55.90;;;;;;1610806;72;797;-68
2022/10/03 09:24:17;;;;;;;;;;;23.30;56.50;;;;;;1606022;72;766;-67
2022/10/03 09:26:37;;;;;;;;;;;23.20;57.20;;;;;;1620061;72;1104;-67
2022/10/03 09:28:58;;;;;;;;;;;23.30;57.70;;;;;;1606807;72;1920;-67
2022/10/03 09:31:02;;;;;;;;;;;23.20;57.60;;;;;;1616165;73;792;-64
2022/10/03 09:33:22;;;;;;;;;;;23.30;57.80;;;;;;1612896;73;2115;-66
2022/10/03 09:35:38;;;;;;;;;;;23.30;57.60;;;;;;1617585;72;857;-65
2022/10/03 09:37:41;;;;;;;;;;;23.20;57.60;;;;;;1603358;73;1162;-65
2022/10/03 09:40:01;;;;;;;;;;;23.20;57.30;;;;;;1607401;72;806;-68
2022/10/03 09:42:05;;;;;;;;;;;23.30;57.30;;;;;;1609753;73;736;-65
2022/10/03 09:44:11;;;;;;;;;;;23.30;57.20;;;;;;1612909;72;1692;-66
2022/10/03 09:46:27;;;;;;;;;;;23.30;57.10;;;;;;1605761;72;719;-66
2022/10/03 09:48:33;;;;;;;;;;;23.30;57.00;;;;;;1606411;73;1910;-67
2022/10/03 09:50:40;;;;;;;;;;;23.30;56.90;;;;;;1605441;72;2253;-65
2022/10/03 09:52:55;;;;;;;;;;;23.30;56.80;;;;;;1602990;73;765;-65
2022/10/03 09:55:02;;;;;;;;;;;23.30;56.80;;;;;;1599736;72;692;-65
2022/10/03 09:57:09;;;;;;;;;;;23.30;56.80;;;;;;1605424;73;1785;-64
2022/10/03 09:59:28;;;;;;;;;;;23.30;56.70;;;;;;1609582;72;682;-65
2022/10/03 10:01:35;;;;;;;;;;;23.30;56.70;;;;;;1601681;72;769;-65
2022/10/03 10:03:55;;;;;;;;;;;23.30;56.60;;;;;;1601688;73;825;-64
2022/10/03 10:06:04;;;;;;;;;;;23.30;56.50;;;;;;1610631;72;729;-66
2022/10/03 10:08:08;;;;;;;;;;;23.30;56.50;;;;;;1609606;73;1095;-66
2022/10/03 10:10:29;;;;;;;;;;;23.30;56.60;;;;;;1606188;72;1934;-66
2022/10/03 10:12:42;;;;;;;;;;;23.30;56.50;;;;;;1611859;73;740;-65
2022/10/03 10:14:51;;;;;;;;;;;23.30;56.50;;;;;;1608917;73;1444;-64
2022/10/03 10:17:04;;;;;;;;;;;23.40;56.50;;;;;;1608960;71;1163;-64
2022/10/03 10:19:25;;;;;;;;;;;23.40;56.50;;;;;;1542318;75;1017;-64
2022/10/03 10:21:43;;;;;;;;;;;23.30;56.40;;;;;;1602891;73;862;-66
2022/10/03 10:23:47;;;;;;;;;;;23.30;56.40;;;;;;1610694;73;1747;-64
2022/10/03 10:25:53;;;;;;;;;;;23.30;56.50;;;;;;1607543;72;1268;-64
2022/10/03 10:28:15;;;;;;;;;;;23.30;56.40;;;;;;1592040;72;1872;-64
2022/10/03 10:30:22;;;;;;;;;;;23.30;56.30;;;;;;1603508;73;1989;-63
2022/10/03 10:32:28;;;;;;;;;;;23.30;56.30;;;;;;1609669;72;1891;-63
2022/10/03 10:34:38;;;;;;;;;;;23.40;56.30;;;;;;1606603;72;1587;-64
2022/10/03 10:37:00;;;;;;;;;;;23.30;56.20;;;;;;1608301;73;1143;-65
2022/10/03 10:39:15;;;;;;;;;;;23.30;56.10;;;;;;1601122;73;1841;-64
2022/10/03 10:41:18;;;;;;;;;;;23.30;56.10;;;;;;1605852;72;1870;-62
2022/10/03 10:43:28;;;;;;;;;;;23.30;56.10;;;;;;1562456;74;1050;-66
2022/10/03 10:45:49;;;;;;;;;;;23.40;56.10;;;;;;1603849;72;736;-64
2022/10/03 10:48:11;;;;;;;;;;;23.30;56.00;;;;;;1608026;72;1096;-65
2022/10/03 10:50:17;;;;;;;;;;;23.30;55.90;;;;;;1608872;72;1930;-64
2022/10/03 10:52:37;;;;;;;;;;;23.30;56.10;;;;;;1615492;72;704;-62
2022/10/03 10:54:43;;;;;;;;;;;23.40;56.00;;;;;;1606948;73;715;-63
2022/10/03 10:56:56;;;;;;;;;;;23.30;55.80;;;;;;1609549;72;1243;-63
2022/10/03 10:59:16;;;;;;;;;;;23.30;55.70;;;;;;1611042;72;1827;-63
2022/10/03 11:01:38;;;;;;;;;;;23.30;55.60;;;;;;1612237;73;767;-64
2022/10/03 11:03:44;;;;;;;;;;;23.30;55.50;;;;;;1603493;72;1423;-63
2022/10/03 11:06:04;;;;;;;;;;;23.30;55.40;;;;;;1607106;73;1530;-63
2022/10/03 11:08:16;;;;;;;;;;;23.40;55.40;;;;;;1604901;72;1104;-63
2022/10/03 11:10:22;;;;;;;;;;;23.40;55.40;;;;;;1609594;72;1893;-63
2022/10/03 11:12:26;;;;;;;;;;;23.30;55.40;;;;;;1611112;72;1951;-64
2022/10/03 11:14:38;;;;;;;;;;;23.30;55.50;;;;;;1600531;72;795;-63
2022/10/03 11:16:42;;;;;;;;;;;23.40;55.50;;;;;;1603667;72;1451;-64
2022/10/03 11:19:02;;;;;;;;;;;23.40;55.60;;;;;;1608508;72;1554;-64
2022/10/03 11:21:21;;;;;;;;;;;23.30;55.50;;;;;;1610008;72;732;-63
2022/10/03 11:23:27;;;;;;;;;;;23.40;55.70;;;;;;1611984;72;1784;-63
2022/10/03 11:25:34;;;;;;;;;;;23.40;55.70;;;;;;1603059;72;1877;-63
2022/10/03 11:27:54;;;;;;;;;;;23.30;55.80;;;;;;1599885;73;1955;-64
2022/10/03 11:29:57;;;;;;;;;;;23.40;55.80;;;;;;1588737;72;1914;-63
2022/10/03 11:32:17;;;;;;;;;;;23.30;55.90;;;;;;1592285;73;907;-63
2022/10/03 11:34:37;;;;;;;;;;;23.40;55.90;;;;;;1602388;72;922;-64
2022/10/03 11:36:57;;;;;;;;;;;23.30;55.80;;;;;;1605314;72;1603;-63
2022/10/03 11:39:01;;;;;;;;;;;23.40;55.80;;;;;;1591788;72;760;-66
2022/10/03 11:41:07;;;;;;;;;;;23.40;55.70;;;;;;1590041;72;767;-63
2022/10/03 11:43:27;;;;;;;;;;;23.40;55.70;;;;;;1597822;72;1747;-61
2022/10/03 11:45:31;;;;;;;;;;;23.40;55.70;;;;;;1598102;72;718;-62
2022/10/03 11:47:35;;;;;;;;;;;23.40;55.50;;;;;;1603537;72;1147;-65
2022/10/03 11:49:51;;;;;;;;;;;23.40;55.60;;;;;;1598592;72;2393;-63
2022/10/03 11:51:54;;;;;;;;;;;23.30;55.50;;;;;;1599478;72;1070;-64
2022/10/03 11:54:07;;;;;;;;;;;23.40;55.40;;;;;;1601301;72;1860;-64
2022/10/03 11:56:27;;;;;;;;;;;23.40;55.30;;;;;;1552125;73;1085;-65
2022/10/03 11:58:33;;;;;;;;;;;23.30;55.30;;;;;;1609190;73;756;-64
2022/10/03 12:00:35;;;;;;;;;;;23.40;55.30;;;;;;1607521;72;1645;-65
2022/10/03 12:02:41;;;;;;;;;;;23.50;55.50;;;;;;1607305;72;782;-65
2022/10/03 12:05:01;;;;;;;;;;;23.30;55.30;;;;;;1606971;72;770;-64
2022/10/03 12:09:46;;;;;;;;;;;23.40;55.20;;;;;;1606709;73;2035;-65
2022/10/03 12:11:50;;;;;;;;;;;23.30;55.20;;;;;;1608043;72;700;-65
2022/10/03 12:13:57;;;;;;;;;;;23.30;55.20;;;;;;1604648;72;2152;-65
2022/10/03 12:15:59;;;;;;;;;;;23.30;55.20;;;;;;1599410;72;1673;-64
2022/10/03 12:18:08;;;;;;;;;;;23.40;55.20;;;;;;1601294;72;229275;-58
2022/10/03 12:20:13;;;;;;;;;;;23.30;55.20;;;;;;1634826;71;1992;-60
2022/10/03 12:22:16;;;;;;;;;;;23.30;55.40;;;;;;1641611;71;1720;-58
2022/10/03 12:24:20;;;;;;;;;;;23.40;55.50;;;;;;1639895;72;1183;-59
2022/10/03 12:26:36;;;;;;;;;;;23.40;55.60;;;;;;1598068;73;761;-60
2022/10/03 12:28:39;;;;;;;;;;;23.30;55.60;;;;;;1611833;73;733;-59
2022/10/03 12:30:48;;;;;;;;;;;23.30;55.50;;;;;;1602819;73;1914;-60
2022/10/03 12:33:03;;;;;;;;;;;23.40;55.50;;;;;;1604126;73;1460;-60
2022/10/03 12:35:13;;;;;;;;;;;23.30;55.40;;;;;;1593368;73;1124;-59
2022/10/03 12:37:16;;;;;;;;;;;23.30;55.30;;;;;;1598642;73;2207;-57
2022/10/03 12:39:20;;;;;;;;;;;23.30;55.30;;;;;;1596413;73;766;-59
2022/10/03 12:41:26;;;;;;;;;;;23.30;55.20;;;;;;1602859;73;1001;-59
2022/10/03 12:43:30;;;;;;;;;;;23.30;55.20;;;;;;1593329;73;1901;-60
2022/10/03 12:45:33;;;;;;;;;;;23.30;55.10;;;;;;1596736;73;1557;-59
2022/10/03 12:47:53;;;;;;;;;;;23.30;55.10;;;;;;1602975;73;739;-60
2022/10/03 12:49:57;;;;;;;;;;;23.30;55.10;;;;;;1603681;73;1930;-59
2022/10/03 12:52:00;;;;;;;;;;;23.30;55.00;;;;;;1603659;73;728;-59
2022/10/03 12:54:07;;;;;;;;;;;23.30;55.00;;;;;;1602389;73;1721;-58
2022/10/03 12:56:27;;;;;;;;;;;23.40;55.00;;;;;;1597848;73;1092;-58
2022/10/03 12:58:33;;;;;;;;;;;23.30;55.00;;;;;;1599188;73;643;-58
2022/10/03 13:00:36;;;;;;;;;;;23.30;55.00;;;;;;1599484;72;1554;-59
2022/10/03 13:02:46;;;;;;;;;;;23.30;54.90;;;;;;1596081;73;732;-60
2022/10/03 13:05:05;;;;;;;;;;;23.40;54.90;;;;;;1601183;73;1826;-59
2022/10/03 13:07:17;;;;;;;;;;;23.30;54.90;;;;;;1595472;73;1710;-60